TFM - Tactical Decision Aid
ID: Runway Winds: CIG/VIS Threshold:

KBWI - Baltimore-Washington, MD, US

Updated at: 0239 UTC 12 May 2021
Latest TAF at: 0230 UTC 12 May 2021

TAF Board

Time0154Z 12/03Z 12/04Z 12/05Z 12/06Z 12/07Z 12/08Z 12/09Z 12/10Z 12/11Z 12/12Z 12/13Z 12/14Z 12/15Z>>
Type OBS PRVL PRVL PRVL PRVL PRVL PRVL PRVL PRVL PRVL PRVL PRVL PRVL PRVL
VIS 10 >6 >6 >6 >6 >6 >6 >6 >6 >6 >6 >6 >6 >6
CIG 100 90 90 -- -- -- -- -- -- 250 250 -- -- --
Cover BKN BKN BKN SCT SCT SCT SCT SCT SCT BKN BKN SCT SCT SCT
FltCat VFR VFR VFR VFR VFR VFR VFR VFR VFR VFR VFR VFR VFR VFR
WX -- -- -- -- -- -- -- -- -- -- -- -- -- --
WDir 290 310 310 330 330 330 330 330 300 300 300 320 320 320
WSpd 8 6 6 6 6 6 6 6 5 5 5 8 8 8
WGst -- -- -- -- -- -- -- -- -- -- -- -- -- --

TDA Impact Legend

  None Marginal Slight Moderate High
Visibility (sm) >5 3≤X≤5 1≤X<3 0.5≤X<1 <0.5
Ceiling (100 ft) >30 10≤X≤30 4≤X<10 2≤X<4 <2
Wind Speed (kt) <15 15≤X<25 25≤X<30 ≥30
Wind Gust (kt) <15 15≤X<25 25≤X<35 ≥35
Weather No Wx Reported VCTS -TS,-FZRA TS,FZRA +TS,+FZRA
TAF
KBWI 120230Z 1203/1306 31006KT P6SM SCT070 BKN090
  FM120500 33006KT P6SM FEW090 SCT150
  FM121000 30005KT P6SM FEW150 SCT250
  FM121100 30005KT P6SM SCT150 BKN250
  FM121300 32008KT P6SM FEW150 SCT250
  FM121800 35008KT P6SM FEW100 SCT110


METAR
KBWI 120154Z 29008KT 10SM BKN100 14/01 A3013 RMK AO2 SLP202 T01440011
KBWI 120054Z 30006KT 10SM BKN110 15/01 A3011 RMK AO2 SLP194 T01500011
KBWI 112354Z 29010KT 10SM FEW085 BKN110 17/01 A3008 RMK AO2 SLP186 T01670011 10206 20167 53008

Radar Display
Forecast Discussion